Time;durP1;ratioP1;P1;durP2;ratioP2;P2;SDS_P1;SDS_P2;PMS_P1;PMS_P2;Temp;Humidity;BMP_temperature;BMP_pressure;BME280_temperature;BME280_humidity;BME280_pressure;Samples;Min_cycle;Max_cycle;Signal;HPM_P1;HPM_P2
2023/09/10 00:00:23;;;;;;;18.00;7.22;;;;;;;24.57;56.39;100215.31;5001041;28;20062;-49
2023/09/10 00:02:49;;;;;;;13.07;7.32;;;;;;;24.46;56.35;100208.03;5004839;28;20104;-53
2023/09/10 00:05:16;;;;;;;16.38;7.53;;;;;;;24.37;56.25;100216.50;5007441;28;20076;-57
2023/09/10 00:07:43;;;;;;;15.30;7.13;;;;;;;24.25;56.82;100216.25;5003225;28;20543;-48
2023/09/10 00:10:10;;;;;;;15.75;6.82;;;;;;;24.16;56.82;100215.94;5011714;28;20077;-49
2023/09/10 00:12:36;;;;;;;14.35;7.63;;;;;;;24.07;57.02;100217.28;4996795;28;20796;-50
2023/09/10 00:15:04;;;;;;;13.68;7.90;;;;;;;24.00;57.50;100216.78;5002460;28;20049;-53
2023/09/10 00:17:31;;;;;;;19.48;8.05;;;;;;;23.95;57.28;100218.84;5036269;28;20103;-52
2023/09/10 00:19:59;;;;;;;15.60;7.15;;;;;;;23.90;57.23;100218.22;5006637;28;20128;-50
2023/09/10 00:22:26;;;;;;;13.75;7.50;;;;;;;23.86;57.73;100215.78;5005767;28;20076;-51
2023/09/10 00:24:52;;;;;;;15.65;7.50;;;;;;;23.81;57.89;100212.53;5011029;28;20071;-52
2023/09/10 00:27:19;;;;;;;11.50;7.55;;;;;;;23.77;57.44;100216.28;5005447;28;20491;-51
2023/09/10 00:29:46;;;;;;;12.55;8.02;;;;;;;23.74;57.72;100211.16;5005897;28;20422;-53
2023/09/10 00:32:12;;;;;;;11.52;7.05;;;;;;;23.70;57.86;100206.97;5004534;28;20046;-50
2023/09/10 00:34:39;;;;;;;12.10;8.32;;;;;;;23.67;57.90;100204.53;5004480;28;20053;-50
2023/09/10 00:37:07;;;;;;;12.48;7.35;;;;;;;23.64;58.19;100207.34;5005968;28;20128;-49
2023/09/10 00:39:34;;;;;;;13.60;7.80;;;;;;;23.60;57.85;100210.16;5006328;28;20046;-53
2023/09/10 00:42:01;;;;;;;16.10;7.85;;;;;;;23.57;58.33;100205.03;5016259;28;20094;-51
2023/09/10 00:44:27;;;;;;;14.95;7.68;;;;;;;23.53;57.97;100211.41;5024223;28;20482;-48
2023/09/10 00:46:54;;;;;;;13.35;7.15;;;;;;;23.48;58.54;100202.91;5026552;28;20073;-47
2023/09/10 00:49:21;;;;;;;11.95;7.10;;;;;;;23.45;58.34;100203.06;5025863;28;20064;-54
2023/09/10 00:51:49;;;;;;;13.45;7.38;;;;;;;23.44;58.56;100204.84;5014322;28;20041;-46
2023/09/10 00:54:17;;;;;;;13.18;7.32;;;;;;;23.41;57.92;100194.47;5025301;28;20049;-49
2023/09/10 00:56:44;;;;;;;16.60;7.35;;;;;;;23.39;58.27;100195.44;5023684;28;20620;-48
2023/09/10 00:59:11;;;;;;;12.05;6.70;;;;;;;23.38;58.98;100199.03;5017512;28;20522;-52
2023/09/10 01:01:38;;;;;;;14.75;7.68;;;;;;;23.34;58.91;100199.16;5024180;28;20276;-49
2023/09/10 01:04:05;;;;;;;12.40;7.60;;;;;;;23.31;59.18;100199.34;5020673;28;20140;-48
2023/09/10 01:06:32;;;;;;;15.80;8.25;;;;;;;23.26;59.17;100201.38;5022983;28;20515;-49
2023/09/10 01:08:59;;;;;;;12.13;7.75;;;;;;;23.18;59.10;100193.88;5021954;28;20052;-47
2023/09/10 01:11:50;;;;;;;15.38;7.95;;;;;;;23.08;59.47;100188.22;5020232;28;20049;-49
2023/09/10 01:14:28;;;;;;;18.27;7.75;;;;;;;23.08;59.54;100192.66;5019304;28;20046;-48
2023/09/10 01:17:05;;;;;;;13.73;8.57;;;;;;;23.09;59.10;100186.41;5020111;28;20057;-48
2023/09/10 01:25:08;;;;;;;14.68;9.80;;;;;;;23.06;59.39;100190.09;5066931;27;21087;-55
2023/09/10 01:27:35;;;;;;;16.02;9.75;;;;;;;23.06;59.69;100195.38;5015839;27;20671;-49
2023/09/10 01:30:02;;;;;;;16.40;10.85;;;;;;;23.06;60.22;100186.56;5014635;28;20120;-47
2023/09/10 01:32:35;;;;;;;18.05;11.30;;;;;;;23.03;59.71;100190.25;5000336;28;20115;-47
2023/09/10 01:35:12;;;;;;;23.05;10.90;;;;;;;23.01;59.59;100197.41;5012013;28;20056;-52
2023/09/10 01:37:45;;;;;;;17.15;9.80;;;;;;;23.01;59.93;100189.50;5019299;28;20046;-50
2023/09/10 01:40:19;;;;;;;16.55;8.63;;;;;;;23.01;59.91;100186.84;5013540;28;22199;-50
2023/09/10 01:42:48;;;;;;;16.02;12.52;;;;;;;23.00;59.99;100187.75;5017556;28;20048;-52
2023/09/10 01:45:15;;;;;;;17.77;11.52;;;;;;;22.97;60.25;100180.03;5019042;28;20050;-45
2023/09/10 01:47:42;;;;;;;20.88;13.25;;;;;;;22.97;60.22;100185.31;5020676;28;20148;-52
2023/09/10 01:50:10;;;;;;;20.35;12.88;;;;;;;22.96;60.97;100186.22;5021857;28;20088;-49
2023/09/10 01:52:36;;;;;;;18.95;11.55;;;;;;;22.93;60.69;100189.03;5019006;28;20038;-50
2023/09/10 01:55:04;;;;;;;18.40;12.13;;;;;;;22.94;60.19;100182.81;5010269;28;20093;-51
2023/09/10 01:57:30;;;;;;;22.92;11.65;;;;;;;22.94;60.01;100183.69;5013652;28;20042;-53
2023/09/10 01:59:57;;;;;;;18.05;10.98;;;;;;;22.95;60.71;100187.16;5021148;28;20056;-50
2023/09/10 02:02:24;;;;;;;19.80;12.07;;;;;;;22.94;61.00;100185.47;5024891;28;20049;-51
2023/09/10 02:04:51;;;;;;;18.92;12.40;;;;;;;22.94;61.03;100180.19;5009186;28;20049;-49
2023/09/10 02:07:17;;;;;;;20.92;12.93;;;;;;;22.91;60.62;100177.69;5016566;28;20693;-54
2023/09/10 02:09:44;;;;;;;21.17;13.90;;;;;;;22.90;60.88;100183.91;5019004;28;20600;-56
2023/09/10 02:12:11;;;;;;;20.42;13.20;;;;;;;22.88;60.73;100175.22;5015681;28;20053;-49
2023/09/10 02:14:37;;;;;;;18.77;12.63;;;;;;;22.85;61.12;100181.50;5016263;28;20054;-50
2023/09/10 02:17:07;;;;;;;23.40;11.02;;;;;;;22.81;60.73;100178.19;5021211;28;20446;-53
2023/09/10 02:19:34;;;;;;;22.48;13.50;;;;;;;22.80;60.84;100181.75;5025599;28;20156;-49
2023/09/10 02:22:02;;;;;;;18.73;13.35;;;;;;;22.77;60.94;100176.63;5016253;28;20050;-52
2023/09/10 02:24:29;;;;;;;26.35;13.43;;;;;;;22.76;61.44;100182.00;5017110;28;20045;-49
2023/09/10 02:26:55;;;;;;;23.55;13.30;;;;;;;22.75;60.71;100188.19;5011993;28;20051;-50
2023/09/10 02:29:22;;;;;;;22.33;13.90;;;;;;;22.72;61.26;100184.78;5019355;28;20049;-53
2023/09/10 02:31:49;;;;;;;21.70;13.60;;;;;;;22.71;60.78;100179.59;5016443;28;20052;-49
2023/09/10 02:34:16;;;;;;;27.30;14.05;;;;;;;22.69;61.29;100178.78;5018058;28;20056;-48
2023/09/10 02:36:42;;;;;;;21.52;14.20;;;;;;;22.67;61.36;100183.31;5002399;28;20084;-50
2023/09/10 02:39:09;;;;;;;24.67;15.02;;;;;;;22.66;61.44;100178.97;5001786;28;20108;-54
2023/09/10 02:41:36;;;;;;;26.98;15.07;;;;;;;22.64;61.46;100179.06;5004170;28;20057;-52
2023/09/10 02:44:02;;;;;;;23.35;13.88;;;;;;;22.63;61.96;100181.78;5002247;28;20046;-50
2023/09/10 02:46:29;;;;;;;20.88;12.48;;;;;;;22.59;61.73;100179.28;5003085;28;20493;-50
2023/09/10 02:48:56;;;;;;;23.73;15.80;;;;;;;22.58;61.38;100179.38;5001885;28;20053;-53
2023/09/10 02:51:22;;;;;;;28.40;16.63;;;;;;;22.55;61.68;100175.06;5005345;28;20119;-49
2023/09/10 02:53:49;;;;;;;25.73;17.48;;;;;;;22.51;62.21;100178.78;5001163;28;20068;-51
2023/09/10 02:56:16;;;;;;;28.50;17.75;;;;;;;22.47;61.98;100175.44;4999232;28;20667;-50
2023/09/10 02:58:42;;;;;;;26.67;16.73;;;;;;;22.47;61.87;100177.25;4998945;28;20049;-51
2023/09/10 03:01:09;;;;;;;27.52;16.95;;;;;;;22.43;62.69;100180.97;5006978;28;20092;-52
2023/09/10 03:03:36;;;;;;;22.80;14.82;;;;;;;22.38;62.62;100177.69;5007651;28;20069;-53
2023/09/10 03:06:11;;;;;;;19.65;11.88;;;;;;;22.33;62.03;100177.94;4999726;28;20490;-53
2023/09/10 03:08:38;;;;;;;22.63;12.25;;;;;;;22.30;62.53;100165.78;4996099;28;20563;-53
2023/09/10 03:11:06;;;;;;;24.50;14.40;;;;;;;22.27;62.41;100165.06;5008332;28;20042;-55
2023/09/10 03:13:32;;;;;;;22.98;15.25;;;;;;;22.24;62.76;100155.50;5010830;28;20095;-54
2023/09/10 03:15:59;;;;;;;23.70;14.77;;;;;;;22.22;62.86;100152.09;5004459;28;20526;-52
2023/09/10 03:18:26;;;;;;;26.25;15.52;;;;;;;22.21;62.50;100153.88;4997847;28;20100;-47
2023/09/10 03:20:53;;;;;;;28.27;15.82;;;;;;;22.21;62.94;100155.66;5008114;28;20046;-47
2023/09/10 03:23:20;;;;;;;25.05;14.63;;;;;;;22.19;62.63;100162.81;5001855;28;20046;-53
2023/09/10 03:25:46;;;;;;;28.10;15.30;;;;;;;22.17;62.45;100159.38;5011896;28;20056;-49
2023/09/10 03:28:13;;;;;;;27.52;15.68;;;;;;;22.14;62.64;100160.41;5009536;28;20045;-47
2023/09/10 03:30:40;;;;;;;24.25;12.70;;;;;;;22.12;62.76;100156.13;5005468;28;20463;-48
2023/09/10 03:33:07;;;;;;;25.52;16.08;;;;;;;22.10;63.19;100156.19;5001080;28;20046;-49
2023/09/10 03:35:33;;;;;;;25.80;15.27;;;;;;;22.08;63.18;100160.69;5010421;28;20050;-49
2023/09/10 03:38:00;;;;;;;24.35;15.93;;;;;;;22.06;62.91;100163.41;5007023;28;20053;-50
2023/09/10 03:40:27;;;;;;;25.70;15.93;;;;;;;22.05;62.80;100160.84;5005140;28;20176;-51
2023/09/10 03:42:53;;;;;;;34.05;17.55;;;;;;;22.04;62.83;100160.00;4998871;28;20104;-47
2023/09/10 03:45:20;;;;;;;30.40;18.15;;;;;;;22.02;62.70;100159.19;5006111;28;20054;-47
2023/09/10 03:47:47;;;;;;;28.17;16.48;;;;;;;22.01;63.37;100165.41;5003778;28;20054;-48
2023/09/10 03:50:15;;;;;;;31.73;16.67;;;;;;;21.99;62.66;100166.44;5007229;28;20053;-53
2023/09/10 03:52:42;;;;;;;26.10;17.27;;;;;;;21.96;63.35;100164.78;5007931;28;20084;-45
2023/09/10 03:55:09;;;;;;;26.83;15.45;;;;;;;21.93;63.13;100170.22;5004527;28;20499;-55
2023/09/10 03:57:36;;;;;;;23.83;15.88;;;;;;;21.90;63.48;100170.34;4997817;28;20050;-52
2023/09/10 04:00:03;;;;;;;26.35;15.70;;;;;;;21.90;63.16;100167.72;5002557;28;20057;-50
2023/09/10 04:02:30;;;;;;;28.75;17.58;;;;;;;21.86;63.65;100171.44;5002758;28;20079;-50
2023/09/10 04:04:57;;;;;;;33.00;18.73;;;;;;;21.83;63.55;100162.75;5000998;28;20116;-51
2023/09/10 04:07:24;;;;;;;29.48;17.35;;;;;;;21.82;63.47;100166.31;4993723;28;21326;-52
2023/09/10 04:09:51;;;;;;;29.88;18.88;;;;;;;21.81;63.76;100156.69;4999161;28;20045;-52
2023/09/10 04:12:17;;;;;;;27.88;17.50;;;;;;;21.80;64.00;100160.25;5002026;28;20057;-51
2023/09/10 04:14:45;;;;;;;25.38;16.65;;;;;;;21.80;63.59;100157.63;5003944;28;20056;-48
2023/09/10 04:17:16;;;;;;;28.38;16.48;;;;;;;21.80;63.73;100147.09;4997833;28;20053;-50
2023/09/10 04:19:44;;;;;;;28.95;15.65;;;;;;;21.78;63.50;100153.38;5003387;28;20139;-46
2023/09/10 04:22:11;;;;;;;25.77;16.52;;;;;;;21.76;63.88;100153.44;5005511;28;20073;-54
2023/09/10 04:24:38;;;;;;;27.70;15.98;;;;;;;21.77;64.54;100141.97;5002080;28;20491;-49
2023/09/10 04:27:04;;;;;;;26.15;16.35;;;;;;;21.77;63.90;100147.22;5006024;28;20426;-48
2023/09/10 04:29:31;;;;;;;26.95;15.93;;;;;;;21.75;64.38;100140.31;5005749;28;20049;-55
2023/09/10 04:31:58;;;;;;;26.13;15.50;;;;;;;21.73;64.27;100140.38;5001322;28;20392;-44
2023/09/10 04:34:24;;;;;;;24.60;15.90;;;;;;;21.72;63.99;100146.56;4999079;28;20137;-51
2023/09/10 04:36:51;;;;;;;29.23;16.63;;;;;;;21.68;64.18;100147.63;5002045;28;20050;-50
2023/09/10 04:39:19;;;;;;;23.83;15.23;;;;;;;21.64;64.71;100141.66;5006585;28;20050;-51
2023/09/10 04:41:46;;;;;;;24.58;15.25;;;;;;;21.63;64.05;100137.31;5001555;28;20050;-47
2023/09/10 04:44:13;;;;;;;22.70;14.38;;;;;;;21.62;64.28;100143.53;4999144;28;20046;-52
2023/09/10 04:46:40;;;;;;;21.63;12.35;;;;;;;21.62;64.51;100147.94;5001106;28;20516;-52
2023/09/10 04:49:07;;;;;;;24.05;13.88;;;;;;;21.62;64.88;100142.66;4999660;28;23193;-50
2023/09/10 04:51:33;;;;;;;23.83;15.25;;;;;;;21.61;64.33;100146.22;5002722;28;20075;-52
2023/09/10 04:54:00;;;;;;;24.25;14.77;;;;;;;21.63;64.66;100144.34;4999554;28;20057;-48
2023/09/10 04:56:27;;;;;;;26.60;15.10;;;;;;;21.62;64.40;100134.75;5001896;28;20045;-49
2023/09/10 04:58:54;;;;;;;20.10;14.50;;;;;;;21.63;65.01;100128.56;5007648;28;20133;-51
2023/09/10 05:01:20;;;;;;;23.60;14.55;;;;;;;21.65;65.43;100126.72;5008119;28;20046;-50
2023/09/10 05:03:47;;;;;;;22.80;14.13;;;;;;;21.66;64.84;100129.28;5000810;28;20050;-53
2023/09/10 05:06:14;;;;;;;21.33;14.30;;;;;;;21.68;64.47;100131.81;5005489;28;20100;-50
2023/09/10 05:08:40;;;;;;;25.67;14.15;;;;;;;21.67;64.98;100130.09;5005471;28;20042;-46
2023/09/10 05:11:07;;;;;;;27.20;14.77;;;;;;;21.65;64.34;100127.53;5005658;28;20050;-50
2023/09/10 05:13:34;;;;;;;21.83;14.80;;;;;;;21.63;64.87;100133.81;5002590;28;20048;-53
2023/09/10 05:16:01;;;;;;;23.55;13.55;;;;;;;21.58;64.95;100127.00;5000832;28;20046;-49
2023/09/10 05:18:28;;;;;;;24.48;13.57;;;;;;;21.55;64.31;100121.84;5009128;28;20054;-49
2023/09/10 05:20:54;;;;;;;22.30;14.07;;;;;;;21.54;65.01;100128.06;5001211;28;20048;-47
2023/09/10 05:23:22;;;;;;;26.45;13.88;;;;;;;21.55;64.64;100126.28;4997169;28;20050;-51
2023/09/10 05:25:49;;;;;;;24.88;15.10;;;;;;;21.55;65.38;100127.13;5005678;28;20041;-49
2023/09/10 05:28:16;;;;;;;24.45;14.43;;;;;;;21.56;64.98;100128.84;4995329;28;20046;-52
2023/09/10 05:30:43;;;;;;;21.45;14.77;;;;;;;21.56;65.28;100120.94;5009747;28;20045;-51
2023/09/10 05:33:10;;;;;;;21.35;13.20;;;;;;;21.58;65.16;100132.25;5000101;28;20042;-47
2023/09/10 05:35:37;;;;;;;21.42;12.40;;;;;;;21.58;64.79;100136.66;5000385;28;20069;-50
2023/09/10 05:38:04;;;;;;;19.92;12.80;;;;;;;21.60;65.03;100136.59;5002576;28;20104;-48
2023/09/10 05:40:37;;;;;;;23.60;13.50;;;;;;;21.62;65.03;100137.38;5001748;28;20045;-51
2023/09/10 05:43:05;;;;;;;23.23;13.93;;;;;;;21.63;65.19;100139.09;5009753;28;20096;-49
2023/09/10 05:45:33;;;;;;;22.60;14.15;;;;;;;21.66;65.28;100149.50;4997478;28;20038;-46
2023/09/10 05:48:01;;;;;;;25.98;14.70;;;;;;;21.67;65.08;100141.50;5000711;28;20584;-46
2023/09/10 05:50:28;;;;;;;23.23;13.52;;;;;;;21.67;64.97;100152.06;4998427;28;20141;-49
2023/09/10 05:52:56;;;;;;;20.85;14.30;;;;;;;21.69;65.38;100160.72;5006205;28;20058;-51
2023/09/10 05:55:24;;;;;;;21.92;14.73;;;;;;;21.72;65.54;100179.97;5002925;28;20042;-46
2023/09/10 05:57:52;;;;;;;23.33;14.20;;;;;;;21.73;65.57;100182.53;5003348;28;20049;-46
2023/09/10 06:00:20;;;;;;;21.95;12.75;;;;;;;21.75;65.32;100179.88;5003249;28;20061;-44
2023/09/10 06:02:49;;;;;;;21.48;13.30;;;;;;;21.76;65.17;100187.69;4999165;28;20045;-53
2023/09/10 06:05:16;;;;;;;24.42;13.93;;;;;;;21.80;65.61;100199.81;5002939;28;20052;-51
2023/09/10 06:07:44;;;;;;;21.27;13.25;;;;;;;21.84;64.90;100195.22;5006279;28;20054;-48
2023/09/10 06:10:11;;;;;;;22.83;14.40;;;;;;;21.89;65.26;100197.66;5006013;28;20096;-50
2023/09/10 06:12:38;;;;;;;26.15;14.35;;;;;;;21.90;65.38;100194.94;4997614;28;20058;-53
2023/09/10 06:15:06;;;;;;;29.35;12.68;;;;;;;21.92;65.18;100197.50;5003623;28;20483;-54
2023/09/10 06:17:34;;;;;;;28.48;14.43;;;;;;;21.93;65.28;100200.09;5002773;28;20050;-51
2023/09/10 06:20:02;;;;;;;23.20;15.48;;;;;;;21.96;64.99;100193.81;5005410;28;20198;-48
2023/09/10 06:22:29;;;;;;;19.70;13.20;;;;;;;21.97;64.75;100192.88;5005913;28;20500;-50
2023/09/10 06:24:56;;;;;;;25.10;14.07;;;;;;;21.99;65.06;100198.06;4996220;28;20046;-51
2023/09/10 06:27:23;;;;;;;25.23;14.07;;;;;;;22.00;65.08;100198.00;5019697;28;20072;-49
2023/09/10 06:29:50;;;;;;;20.23;13.13;;;;;;;22.03;65.31;100195.22;5004825;28;20056;-52
2023/09/10 06:32:16;;;;;;;25.42;13.43;;;;;;;22.06;65.55;100191.56;5004792;28;20053;-52
2023/09/10 06:34:43;;;;;;;23.08;13.45;;;;;;;22.11;65.13;100191.31;5004167;28;20061;-48
2023/09/10 06:37:10;;;;;;;24.17;14.32;;;;;;;22.18;65.41;100187.47;5010345;28;20044;-56
2023/09/10 06:39:38;;;;;;;23.42;14.48;;;;;;;22.23;64.92;100185.47;5005441;28;20081;-51
2023/09/10 06:42:08;;;;;;;23.20;15.50;;;;;;;22.28;65.61;100188.72;5009012;28;20072;-49
2023/09/10 06:44:35;;;;;;;23.15;15.27;;;;;;;22.33;65.42;100207.81;4996137;28;20042;-51
2023/09/10 06:47:02;;;;;;;25.00;15.73;;;;;;;22.40;65.30;100207.50;5003290;28;20053;-47
2023/09/10 06:49:29;;;;;;;24.45;16.05;;;;;;;22.46;64.78;100208.03;5000089;28;20042;-48
2023/09/10 06:51:56;;;;;;;27.23;13.02;;;;;;;22.51;64.87;100210.47;5007234;28;20176;-50
2023/09/10 06:54:23;;;;;;;26.15;16.33;;;;;;;22.53;64.43;100213.88;5001668;28;20042;-52
2023/09/10 06:56:50;;;;;;;25.17;16.33;;;;;;;22.58;64.96;100206.63;5004454;28;20054;-50
2023/09/10 06:59:17;;;;;;;22.38;15.38;;;;;;;22.67;64.46;100201.78;4997401;28;20054;-56
2023/09/10 07:01:44;;;;;;;26.02;14.43;;;;;;;22.77;65.05;100199.53;5003685;28;20101;-54
2023/09/10 07:04:20;;;;;;;34.83;16.60;;;;;;;23.07;64.51;100181.22;5002840;28;20450;-52
2023/09/10 07:06:49;;;;;;;28.13;15.07;;;;;;;23.71;63.85;100184.91;5018925;28;20050;-50
2023/09/10 07:09:17;;;;;;;23.52;15.07;;;;;;;24.39;63.17;100185.50;4999743;28;20178;-47
2023/09/10 07:11:44;;;;;;;25.00;14.50;;;;;;;24.92;62.38;100202.75;5012846;28;20062;-57
2023/09/10 07:14:11;;;;;;;21.10;14.38;;;;;;;25.04;61.55;100194.03;5009879;28;20519;-52
2023/09/10 07:16:37;;;;;;;20.95;13.98;;;;;;;25.10;61.24;100193.69;5002477;28;20073;-51
2023/09/10 07:19:04;;;;;;;25.52;14.23;;;;;;;25.11;60.64;100187.41;5012657;28;20136;-51
2023/09/10 07:21:31;;;;;;;22.02;14.00;;;;;;;25.06;61.07;100184.19;5000761;28;20052;-54
2023/09/10 07:23:58;;;;;;;21.05;14.45;;;;;;;25.34;60.95;100193.09;5000370;28;20053;-50
2023/09/10 07:26:24;;;;;;;20.67;12.63;;;;;;;25.98;60.60;100196.19;4993797;28;20109;-52
2023/09/10 07:28:51;;;;;;;18.45;12.25;;;;;;;26.64;59.02;100193.59;5015450;28;20054;-53
2023/09/10 07:31:18;;;;;;;21.88;12.55;;;;;;;27.26;57.39;100190.28;5002515;28;20046;-49
2023/09/10 07:33:45;;;;;;;18.17;12.77;;;;;;;27.85;56.47;100188.75;5012212;28;20052;-53
2023/09/10 07:36:12;;;;;;;22.27;12.70;;;;;;;28.38;56.10;100190.22;4994858;28;20129;-50
2023/09/10 07:38:38;;;;;;;23.67;13.05;;;;;;;28.87;54.49;100192.69;4994216;28;20061;-48
2023/09/10 07:41:06;;;;;;;20.58;13.20;;;;;;;29.35;53.45;100182.81;5004981;28;20056;-53
2023/09/10 07:43:32;;;;;;;19.98;11.38;;;;;;;29.74;53.17;100175.22;4998332;28;20042;-52
2023/09/10 07:45:59;;;;;;;20.23;12.27;;;;;;;30.15;52.33;100174.59;4997842;28;20278;-50
2023/09/10 07:48:26;;;;;;;18.25;9.82;;;;;;;30.57;50.85;100180.91;5004681;28;20420;-52
2023/09/10 07:50:55;;;;;;;19.52;12.48;;;;;;;30.77;50.74;100174.72;5008282;28;20049;-50
2023/09/10 07:53:23;;;;;;;19.45;12.73;;;;;;;30.76;49.63;100177.53;5004573;28;20546;-49
2023/09/10 07:55:50;;;;;;;14.20;11.23;;;;;;;30.35;49.40;100175.59;5006460;28;20073;-45
2023/09/10 07:58:17;;;;;;;18.63;12.23;;;;;;;30.26;50.48;100166.53;5004401;28;20046;-55
2023/09/10 08:00:44;;;;;;;24.20;12.85;;;;;;;30.61;49.92;100166.31;5002208;28;20045;-50
2023/09/10 08:03:12;;;;;;;21.00;12.57;;;;;;;30.99;49.26;100167.50;5007515;28;20053;-47
2023/09/10 08:05:40;;;;;;;20.77;11.95;;;;;;;31.12;48.74;100166.41;5017066;28;20757;-52
2023/09/10 08:08:06;;;;;;;16.60;12.20;;;;;;;30.89;48.52;100172.81;5005112;28;20081;-47
2023/09/10 08:10:34;;;;;;;20.80;12.10;;;;;;;30.53;48.78;100167.81;5003526;28;20046;-48
2023/09/10 08:13:04;;;;;;;19.70;11.98;;;;;;;30.63;49.24;100178.56;5005291;28;20093;-47
2023/09/10 08:15:31;;;;;;;19.48;12.25;;;;;;;30.78;48.79;100187.13;4994252;28;20614;-52
2023/09/10 08:17:58;;;;;;;19.95;10.90;;;;;;;30.95;48.73;100182.13;4991215;28;24055;-53
2023/09/10 08:20:25;;;;;;;20.50;12.38;;;;;;;31.37;48.37;100183.00;5000869;28;20140;-50
2023/09/10 08:22:53;;;;;;;15.43;11.65;;;;;;;31.87;47.66;100191.94;5000580;28;20050;-52
2023/09/10 08:25:20;;;;;;;17.23;11.00;;;;;;;32.12;46.62;100189.72;5007655;28;20042;-51
2023/09/10 08:27:47;;;;;;;20.23;10.70;;;;;;;32.49;47.04;100190.84;4995733;28;20050;-47
2023/09/10 08:30:14;;;;;;;17.17;11.20;;;;;;;32.85;45.66;100190.16;4997481;28;20287;-53
2023/09/10 08:32:42;;;;;;;16.45;11.10;;;;;;;32.95;45.19;100190.97;5002497;28;20072;-52
2023/09/10 08:35:09;;;;;;;17.08;10.90;;;;;;;32.85;44.96;100190.16;4994539;28;20133;-57
2023/09/10 08:37:36;;;;;;;18.42;11.30;;;;;;;32.98;45.53;100184.44;5001173;28;20115;-51
2023/09/10 08:40:03;;;;;;;16.30;11.35;;;;;;;33.26;45.23;100179.97;5004156;28;20064;-51
2023/09/10 08:42:55;;;;;;;21.02;10.70;;;;;;;33.51;44.13;100185.63;4994031;28;20056;-49
2023/09/10 08:45:22;;;;;;;13.75;10.15;;;;;;;33.55;44.29;100178.94;5008864;28;20067;-49
2023/09/10 08:47:54;;;;;;;16.92;10.73;;;;;;;33.94;44.73;100179.69;4992738;28;20050;-55
2023/09/10 08:50:22;;;;;;;17.92;11.05;;;;;;;34.46;43.94;100172.69;5008015;28;20046;-50
2023/09/10 08:52:50;;;;;;;14.88;10.07;;;;;;;34.81;42.73;100170.06;4998679;28;20745;-56
2023/09/10 08:55:17;;;;;;;17.33;11.70;;;;;;;34.87;42.72;100175.66;4995148;28;20045;-51
2023/09/10 08:57:46;;;;;;;19.55;9.95;;;;;;;35.19;42.42;100184.03;4996459;28;21370;-54
2023/09/10 09:00:12;;;;;;;16.25;9.23;;;;;;;35.53;40.80;100179.59;5004716;28;20112;-50
2023/09/10 09:02:41;;;;;;;16.55;11.68;;;;;;;35.48;40.71;100171.16;4997488;28;20137;-54
2023/09/10 09:05:09;;;;;;;15.40;10.20;;;;;;;35.37;41.02;100175.88;4993763;28;20531;-48
2023/09/10 09:10:28;;;;;;;10.93;7.10;;;;;;;35.18;41.53;100181.53;5018291;27;20410;-52
2023/09/10 09:12:58;;;;;;;13.32;8.23;;;;;;;34.96;41.03;100183.75;5009272;28;20052;-51
2023/09/10 09:15:26;;;;;;;12.55;7.63;;;;;;;34.64;41.54;100179.91;5014863;28;20133;-55
2023/09/10 09:17:55;;;;;;;14.55;8.85;;;;;;;34.28;41.60;100181.66;5005422;28;20507;-53
2023/09/10 09:20:24;;;;;;;15.20;9.30;;;;;;;33.93;42.28;100175.28;5021080;28;20053;-48
2023/09/10 09:22:58;;;;;;;16.63;8.98;;;;;;;33.53;42.60;100172.88;5014252;28;20061;-52
2023/09/10 09:25:26;;;;;;;13.27;8.57;;;;;;;33.16;43.61;100166.59;5009576;28;20141;-52
2023/09/10 09:27:56;;;;;;;13.18;8.45;;;;;;;32.84;43.68;100165.19;5010765;28;20082;-53
2023/09/10 09:30:22;;;;;;;17.40;9.60;;;;;;;32.55;44.15;100156.25;5016350;28;20052;-53
2023/09/10 09:32:49;;;;;;;13.60;8.65;;;;;;;32.30;44.88;100152.31;5017970;28;20042;-54
2023/09/10 09:35:16;;;;;;;16.98;8.52;;;;;;;32.05;45.23;100163.50;5012705;28;20103;-52
2023/09/10 09:37:43;;;;;;;14.25;9.35;;;;;;;31.85;45.69;100159.09;5012737;28;20100;-50
2023/09/10 09:40:10;;;;;;;12.95;8.77;;;;;;;31.69;45.70;100163.19;5026076;28;20044;-53
2023/09/10 09:42:37;;;;;;;14.27;8.93;;;;;;;31.57;46.30;100164.31;5018522;28;20041;-50
2023/09/10 09:45:04;;;;;;;14.48;8.73;;;;;;;31.45;46.25;100161.75;5029573;28;20069;-53
2023/09/10 09:47:32;;;;;;;14.85;8.57;;;;;;;31.35;46.68;100166.22;5018750;28;20042;-57
2023/09/10 09:49:59;;;;;;;15.70;9.65;;;;;;;31.19;46.99;100161.34;5019901;28;20085;-55
2023/09/10 09:52:26;;;;;;;14.65;9.40;;;;;;;31.00;47.22;100168.34;5017225;28;20081;-56
2023/09/10 09:54:52;;;;;;;15.45;8.98;;;;;;;30.88;47.54;100167.59;5019086;28;20049;-53
2023/09/10 09:57:19;;;;;;;17.40;10.25;;;;;;;30.78;47.62;100165.75;5021976;28;20080;-54
2023/09/10 09:59:48;;;;;;;19.48;10.20;;;;;;;30.68;47.64;100159.47;5014968;28;20433;-55
2023/09/10 10:02:15;;;;;;;;;;;;;;;30.45;48.03;100148.06;5015605;28;20283;-55
2023/09/10 10:04:43;;;;;;;21.27;10.73;;;;;;;30.57;47.95;100157.72;5018005;28;20027;-51
2023/09/10 10:07:12;;;;;;;19.67;9.13;;;;;;;30.61;48.10;100160.97;5016830;28;20050;-53
2023/09/10 10:09:51;;;;;;;16.40;9.40;;;;;;;30.80;47.90;100156.72;5035537;28;20478;-49
2023/09/10 10:12:19;;;;;;;14.35;8.60;;;;;;;31.26;48.00;100152.66;5016911;28;20892;-49
2023/09/10 10:14:47;;;;;;;17.17;9.52;;;;;;;31.80;47.10;100152.34;5002853;28;20058;-53
2023/09/10 10:17:16;;;;;;;14.30;8.55;;;;;;;32.28;45.64;100155.16;4992556;28;20125;-45
2023/09/10 10:19:43;;;;;;;15.63;9.63;;;;;;;32.69;45.25;100151.41;4993887;28;20133;-50
2023/09/10 10:22:12;;;;;;;12.93;8.30;;;;;;;33.16;44.99;100145.13;5000872;28;20064;-51
2023/09/10 10:24:39;;;;;;;13.38;7.75;;;;;;;33.43;43.53;100142.59;5001009;28;20045;-51
2023/09/10 10:27:07;;;;;;;14.43;7.97;;;;;;;33.80;43.68;100141.63;5000859;28;20563;-55
2023/09/10 10:29:35;;;;;;;12.43;8.50;;;;;;;34.16;43.30;100134.53;5001772;28;20083;-55
2023/09/10 10:32:13;;;;;;;13.65;8.40;;;;;;;34.22;41.98;100128.53;5003599;28;20052;-50
2023/09/10 10:34:49;;;;;;;14.98;8.70;;;;;;;34.03;41.28;100125.00;4998926;28;20050;-53
2023/09/10 10:37:25;;;;;;;20.77;8.98;;;;;;;33.83;41.79;100130.56;5004500;28;20065;-50
2023/09/10 10:42:37;;;;;;;17.95;10.98;;;;;;;33.63;40.92;100123.69;5029883;27;20403;-53
2023/09/10 10:45:07;;;;;;;16.73;10.30;;;;;;;33.48;41.52;100110.75;4993102;28;20403;-56
2023/09/10 10:47:38;;;;;;;17.88;9.18;;;;;;;33.43;42.49;100116.56;5012600;28;20521;-53
2023/09/10 10:50:09;;;;;;;12.50;8.75;;;;;;;33.49;42.64;100107.06;5023956;28;20128;-48
2023/09/10 10:52:44;;;;;;;18.15;10.93;;;;;;;33.49;42.79;100112.44;5032338;28;20045;-48
2023/09/10 10:55:12;;;;;;;18.60;9.73;;;;;;;33.45;42.45;100111.06;5023639;28;20056;-51
2023/09/10 10:57:39;;;;;;;16.08;9.45;;;;;;;33.39;42.20;100112.50;5019486;28;20730;-53
2023/09/10 11:00:09;;;;;;;16.85;9.02;;;;;;;33.30;42.47;100111.56;5028217;28;20048;-56
2023/09/10 11:02:36;;;;;;;14.93;8.85;;;;;;;33.27;41.94;100109.22;5025471;28;20054;-48
2023/09/10 11:05:07;;;;;;;14.00;9.27;;;;;;;33.30;42.13;100103.53;5025097;28;20053;-53
2023/09/10 11:07:34;;;;;;;16.73;8.88;;;;;;;33.32;41.69;100085.44;5029398;28;20056;-51
2023/09/10 11:18:42;;;;;;;10.32;7.43;;;;;;;33.42;41.51;100080.00;5049004;28;20395;-51
2023/09/10 11:21:12;;;;;;;13.98;8.57;;;;;;;33.43;41.58;100080.84;5034938;28;20061;-47
2023/09/10 11:24:01;;;;;;;13.50;9.07;;;;;;;33.40;41.24;100076.63;5034118;28;20064;-49
2023/09/10 11:26:29;;;;;;;13.02;9.05;;;;;;;33.38;42.42;100067.03;5031444;28;20679;-48
2023/09/10 11:28:59;;;;;;;13.52;7.82;;;;;;;33.36;41.63;100063.69;5037792;28;20050;-49
2023/09/10 11:37:07;;;;;;;13.90;7.20;;;;;;;33.11;41.50;100060.72;5083669;27;20934;-49
2023/09/10 11:39:35;;;;;;;11.73;7.38;;;;;;;32.99;41.84;100054.72;5073653;28;20059;-54